CFG3AQ EDHI-EDDL
Flight info
| Callsign | CFG3AQ |
|---|---|
| Flight time | 0h 42m |
| Altitude | 27000 |
| Route | IDEKO9E IDEKO N850 NIE/N0446F260 DCT DENOL T851 HALME HALME1A |
| Aircraft | A333/H-SDE3GHIJ2J3J5M1RVWXY/LB2D1 |
Departure
| Time | 2026-05-05 18:25 |
|---|---|
| Airport | Hamburg-Finkenwerder Airport (EDHI) |
Arrival
| Time | 2026-05-05 19:07 |
|---|---|
| Airport | Düsseldorf Airport (EDDL) |
| Time | Latitude | Longitude | Altitude | Speed | Heading |
|---|---|---|---|---|---|
| 2026-05-05 17:51 | 53.53237 | 9.83606 | 20 ft | 0 kts | 355° |
| 2026-05-05 18:08 | 53.53223 | 9.83608 | 20 ft | 2 kts | 355° |
| 2026-05-05 18:08 | 53.53208 | 9.83610 | 20 ft | 2 kts | 355° |
| 2026-05-05 18:08 | 53.53193 | 9.83612 | 20 ft | 2 kts | 355° |
| 2026-05-05 18:08 | 53.53179 | 9.83614 | 20 ft | 1 kts | 355° |
| 2026-05-05 18:09 | 53.53169 | 9.83615 | 20 ft | 2 kts | 351° |
| 2026-05-05 18:09 | 53.53154 | 9.83621 | 20 ft | 2 kts | 337° |
| 2026-05-05 18:09 | 53.53141 | 9.83632 | 20 ft | 2 kts | 327° |
| 2026-05-05 18:09 | 53.53129 | 9.83647 | 20 ft | 2 kts | 315° |
| 2026-05-05 18:10 | 53.53119 | 9.83666 | 20 ft | 2 kts | 304° |
| 2026-05-05 18:10 | 53.53113 | 9.83682 | 20 ft | 0 kts | 296° |
| 2026-05-05 18:10 | 53.53112 | 9.83686 | 20 ft | 0 kts | 295° |
| 2026-05-05 18:12 | 53.53116 | 9.83670 | 20 ft | 9 kts | 297° |
| 2026-05-05 18:13 | 53.53170 | 9.83486 | 20 ft | 21 kts | 295° |
| 2026-05-05 18:13 | 53.53245 | 9.83356 | 20 ft | 14 kts | 336° |
| 2026-05-05 18:13 | 53.53305 | 9.83204 | 18 ft | 17 kts | 296° |
| 2026-05-05 18:13 | 53.53283 | 9.83024 | 18 ft | 17 kts | 234° |
| 2026-05-05 18:14 | 53.53210 | 9.82864 | 18 ft | 17 kts | 232° |
| 2026-05-05 18:14 | 53.53111 | 9.82658 | 17 ft | 30 kts | 231° |
| 2026-05-05 18:14 | 53.52956 | 9.82327 | 17 ft | 41 kts | 232° |
| 2026-05-05 18:14 | 53.52824 | 9.82047 | 16 ft | 22 kts | 232° |
| 2026-05-05 18:15 | 53.52717 | 9.81823 | 15 ft | 31 kts | 231° |
| 2026-05-05 18:15 | 53.52590 | 9.81555 | 13 ft | 18 kts | 235° |
| 2026-05-05 18:15 | 53.52556 | 9.81371 | 13 ft | 16 kts | 216° |
| 2026-05-05 18:15 | 53.52535 | 9.81449 | 13 ft | 10 kts | 50° |
| 2026-05-05 18:16 | 53.52572 | 9.81519 | 13 ft | 0 kts | 52° |
| 2026-05-05 18:24 | 53.52666 | 9.81717 | 14 ft | 51 kts | 51° |
| 2026-05-05 18:24 | 53.53014 | 9.82457 | 17 ft | 110 kts | 52° |
| 2026-05-05 18:24 | 53.53600 | 9.83698 | 26 ft | 159 kts | 50° |
| 2026-05-05 18:25 | 53.54322 | 9.85213 | 438 ft | 166 kts | 49° |
| 2026-05-05 18:25 | 53.54805 | 9.86202 | 819 ft | 167 kts | 48° |
| 2026-05-05 18:25 | 53.55773 | 9.88236 | 1636 ft | 162 kts | 52° |
| 2026-05-05 18:25 | 53.56449 | 9.89725 | 1953 ft | 168 kts | 52° |
| 2026-05-05 18:26 | 53.57257 | 9.91306 | 2001 ft | 188 kts | 34° |
| 2026-05-05 18:26 | 53.58547 | 9.91961 | 2034 ft | 210 kts | 357° |
| 2026-05-05 18:26 | 53.60016 | 9.91108 | 2066 ft | 242 kts | 324° |
| 2026-05-05 18:26 | 53.61245 | 9.89029 | 2298 ft | 266 kts | 305° |
| 2026-05-05 18:27 | 53.61924 | 9.86020 | 2658 ft | 285 kts | 280° |
| 2026-05-05 18:27 | 53.62082 | 9.82631 | 3139 ft | 298 kts | 265° |
| 2026-05-05 18:27 | 53.61634 | 9.79327 | 3643 ft | 285 kts | 254° |
| 2026-05-05 18:27 | 53.61005 | 9.76101 | 4141 ft | 290 kts | 252° |
| 2026-05-05 18:28 | 53.59656 | 9.69791 | 5512 ft | 279 kts | 250° |
| 2026-05-05 18:28 | 53.59037 | 9.66945 | 6808 ft | 258 kts | 250° |
| 2026-05-05 18:28 | 53.58414 | 9.64099 | 7462 ft | 262 kts | 250° |
| 2026-05-05 18:29 | 53.57777 | 9.61190 | 7865 ft | 275 kts | 250° |
| 2026-05-05 18:29 | 53.56927 | 9.58268 | 8495 ft | 280 kts | 233° |
| 2026-05-05 18:29 | 53.55444 | 9.56246 | 9158 ft | 285 kts | 208° |
| 2026-05-05 18:29 | 53.53494 | 9.55426 | 9759 ft | 294 kts | 186° |
| 2026-05-05 18:30 | 53.51468 | 9.55187 | 9992 ft | 295 kts | 189° |
| 2026-05-05 18:30 | 53.49406 | 9.54800 | 9905 ft | 303 kts | 189° |
| 2026-05-05 18:30 | 53.47303 | 9.54395 | 10640 ft | 302 kts | 189° |
| 2026-05-05 18:30 | 53.45239 | 9.54002 | 11409 ft | 299 kts | 193° |
| 2026-05-05 18:31 | 53.43283 | 9.52970 | 11883 ft | 303 kts | 203° |
| 2026-05-05 18:31 | 53.41295 | 9.51764 | 12545 ft | 305 kts | 203° |
| 2026-05-05 18:31 | 53.39288 | 9.50536 | 12966 ft | 315 kts | 203° |
| 2026-05-05 18:31 | 53.37159 | 9.49234 | 12942 ft | 339 kts | 202° |
| 2026-05-05 18:32 | 53.34932 | 9.47876 | 13394 ft | 346 kts | 202° |
| 2026-05-05 18:32 | 53.32671 | 9.46500 | 14020 ft | 348 kts | 202° |
| 2026-05-05 18:32 | 53.30379 | 9.45103 | 14623 ft | 350 kts | 202° |
| 2026-05-05 18:32 | 53.28086 | 9.43708 | 15182 ft | 353 kts | 202° |
| 2026-05-05 18:33 | 53.25787 | 9.42311 | 15740 ft | 356 kts | 202° |
| 2026-05-05 18:33 | 53.23477 | 9.40910 | 16345 ft | 357 kts | 202° |
| 2026-05-05 18:33 | 53.21128 | 9.39485 | 16923 ft | 358 kts | 202° |
| 2026-05-05 18:33 | 53.18807 | 9.38080 | 17454 ft | 360 kts | 202° |
| 2026-05-05 18:34 | 53.16443 | 9.36649 | 17995 ft | 362 kts | 202° |
| 2026-05-05 18:34 | 53.14072 | 9.35218 | 18507 ft | 365 kts | 202° |
| 2026-05-05 18:34 | 53.11710 | 9.33795 | 19058 ft | 366 kts | 201° |
| 2026-05-05 18:34 | 53.09320 | 9.32355 | 19606 ft | 367 kts | 201° |
| 2026-05-05 18:35 | 53.06934 | 9.30917 | 20106 ft | 368 kts | 201° |
| 2026-05-05 18:35 | 53.04523 | 9.29468 | 20532 ft | 371 kts | 201° |
| 2026-05-05 18:35 | 53.02100 | 9.28013 | 21051 ft | 372 kts | 201° |
| 2026-05-05 18:35 | 52.99668 | 9.26557 | 21582 ft | 372 kts | 201° |
| 2026-05-05 18:36 | 52.97214 | 9.25084 | 21981 ft | 375 kts | 201° |
| 2026-05-05 18:36 | 52.94772 | 9.23622 | 22404 ft | 378 kts | 201° |
| 2026-05-05 18:36 | 52.92302 | 9.22147 | 22858 ft | 379 kts | 201° |
| 2026-05-05 18:36 | 52.89835 | 9.20674 | 23280 ft | 381 kts | 201° |
| 2026-05-05 18:37 | 52.87345 | 9.19189 | 23710 ft | 382 kts | 201° |
| 2026-05-05 18:37 | 52.84849 | 9.17706 | 24139 ft | 384 kts | 201° |
| 2026-05-05 18:37 | 52.82321 | 9.16200 | 24542 ft | 386 kts | 201° |
| 2026-05-05 18:37 | 52.79816 | 9.14713 | 24944 ft | 388 kts | 202° |
| 2026-05-05 18:38 | 52.77262 | 9.13200 | 25382 ft | 389 kts | 201° |
| 2026-05-05 18:38 | 52.74714 | 9.11687 | 25804 ft | 391 kts | 202° |
| 2026-05-05 18:38 | 52.72185 | 9.10191 | 26218 ft | 392 kts | 202° |
| 2026-05-05 18:38 | 52.69592 | 9.08659 | 26587 ft | 395 kts | 202° |
| 2026-05-05 18:39 | 52.67038 | 9.07151 | 26961 ft | 393 kts | 202° |
| 2026-05-05 18:39 | 52.64435 | 9.05616 | 26940 ft | 402 kts | 202° |
| 2026-05-05 18:39 | 52.61782 | 9.04051 | 26954 ft | 412 kts | 202° |
| 2026-05-05 18:39 | 52.59065 | 9.02454 | 26979 ft | 422 kts | 202° |
| 2026-05-05 18:40 | 52.56266 | 9.00810 | 26960 ft | 432 kts | 202° |
| 2026-05-05 18:40 | 52.53416 | 8.99137 | 26964 ft | 440 kts | 202° |
| 2026-05-05 18:40 | 52.50526 | 8.97445 | 26958 ft | 448 kts | 202° |
| 2026-05-05 18:40 | 52.47589 | 8.95730 | 26959 ft | 448 kts | 201° |
| 2026-05-05 18:41 | 52.44996 | 8.94216 | 26951 ft | 437 kts | 201° |
| 2026-05-05 18:41 | 52.42143 | 8.92551 | 26951 ft | 432 kts | 201° |
| 2026-05-05 18:41 | 52.39329 | 8.90913 | 26953 ft | 431 kts | 201° |
| 2026-05-05 18:41 | 52.36527 | 8.89282 | 26946 ft | 431 kts | 201° |
| 2026-05-05 18:42 | 52.33819 | 8.87379 | 26503 ft | 422 kts | 210° |
| 2026-05-05 18:42 | 52.31474 | 8.84602 | 25380 ft | 425 kts | 225° |
| 2026-05-05 18:42 | 52.29634 | 8.80819 | 24561 ft | 423 kts | 234° |
| 2026-05-05 18:42 | 52.28046 | 8.76858 | 23928 ft | 418 kts | 237° |
| 2026-05-05 18:43 | 52.26551 | 8.72852 | 23144 ft | 416 kts | 238° |
| 2026-05-05 18:43 | 52.25080 | 8.68799 | 22434 ft | 414 kts | 239° |
| 2026-05-05 18:43 | 52.23644 | 8.64796 | 21766 ft | 410 kts | 239° |
| 2026-05-05 18:43 | 52.22223 | 8.60825 | 21141 ft | 406 kts | 239° |
| 2026-05-05 18:44 | 52.20802 | 8.56853 | 20419 ft | 405 kts | 239° |
| 2026-05-05 18:44 | 52.19396 | 8.52925 | 19897 ft | 406 kts | 239° |
| 2026-05-05 18:44 | 52.17997 | 8.49019 | 20013 ft | 392 kts | 239° |
| 2026-05-05 18:44 | 52.16646 | 8.45256 | 19962 ft | 385 kts | 239° |
| 2026-05-05 18:45 | 52.15292 | 8.41490 | 19924 ft | 379 kts | 239° |
| 2026-05-05 18:45 | 52.13974 | 8.37831 | 19974 ft | 381 kts | 239° |
| 2026-05-05 18:45 | 52.12619 | 8.34071 | 19948 ft | 383 kts | 238° |
| 2026-05-05 18:45 | 52.11276 | 8.30352 | 19963 ft | 383 kts | 238° |
| 2026-05-05 18:46 | 52.09925 | 8.26616 | 19953 ft | 382 kts | 238° |
| 2026-05-05 18:46 | 52.08587 | 8.22920 | 19959 ft | 384 kts | 238° |
| 2026-05-05 18:46 | 52.07244 | 8.19216 | 19937 ft | 382 kts | 238° |
| 2026-05-05 18:46 | 52.05897 | 8.15510 | 19962 ft | 384 kts | 238° |
| 2026-05-05 18:47 | 52.04544 | 8.11788 | 19942 ft | 384 kts | 238° |
| 2026-05-05 18:47 | 52.03184 | 8.08052 | 19950 ft | 384 kts | 238° |
| 2026-05-05 18:47 | 52.01822 | 8.04320 | 19955 ft | 385 kts | 238° |
| 2026-05-05 18:47 | 52.00464 | 8.00602 | 19963 ft | 385 kts | 238° |
| 2026-05-05 18:48 | 51.99100 | 7.96874 | 19954 ft | 386 kts | 238° |
| 2026-05-05 18:48 | 51.97732 | 7.93141 | 19968 ft | 385 kts | 238° |
| 2026-05-05 18:48 | 51.96375 | 7.89443 | 19967 ft | 385 kts | 238° |
| 2026-05-05 18:48 | 51.95004 | 7.85712 | 19950 ft | 383 kts | 238° |
| 2026-05-05 18:49 | 51.93648 | 7.82028 | 19970 ft | 384 kts | 238° |
| 2026-05-05 18:49 | 51.92279 | 7.78315 | 19960 ft | 384 kts | 238° |
| 2026-05-05 18:49 | 51.90909 | 7.74602 | 19955 ft | 385 kts | 238° |
| 2026-05-05 18:49 | 51.89539 | 7.70895 | 19960 ft | 385 kts | 238° |
| 2026-05-05 18:50 | 51.88154 | 7.67153 | 19959 ft | 385 kts | 238° |
| 2026-05-05 18:50 | 51.86779 | 7.63442 | 19958 ft | 385 kts | 238° |
| 2026-05-05 18:50 | 51.85410 | 7.59756 | 19963 ft | 385 kts | 238° |
| 2026-05-05 18:50 | 51.84033 | 7.56053 | 19967 ft | 385 kts | 238° |
| 2026-05-05 18:51 | 51.82682 | 7.52423 | 19926 ft | 373 kts | 238° |
| 2026-05-05 18:51 | 51.81369 | 7.48901 | 19588 ft | 366 kts | 238° |
| 2026-05-05 18:51 | 51.80065 | 7.45411 | 19003 ft | 366 kts | 238° |
| 2026-05-05 18:51 | 51.78744 | 7.41880 | 18451 ft | 365 kts | 238° |
| 2026-05-05 18:52 | 51.77443 | 7.38402 | 17948 ft | 363 kts | 238° |
| 2026-05-05 18:52 | 51.76156 | 7.34967 | 17493 ft | 359 kts | 237° |
| 2026-05-05 18:52 | 51.74869 | 7.31544 | 17016 ft | 357 kts | 237° |
| 2026-05-05 18:52 | 51.73581 | 7.28130 | 16521 ft | 355 kts | 237° |
| 2026-05-05 18:53 | 51.72297 | 7.24729 | 16046 ft | 353 kts | 237° |
| 2026-05-05 18:53 | 51.71034 | 7.21380 | 15594 ft | 351 kts | 237° |
| 2026-05-05 18:53 | 51.69764 | 7.18018 | 15125 ft | 349 kts | 237° |
| 2026-05-05 18:53 | 51.68525 | 7.14740 | 14685 ft | 346 kts | 237° |
| 2026-05-05 18:54 | 51.67289 | 7.11469 | 14332 ft | 340 kts | 237° |
| 2026-05-05 18:54 | 51.66083 | 7.08275 | 14166 ft | 324 kts | 238° |
| 2026-05-05 18:54 | 51.64920 | 7.05204 | 13498 ft | 324 kts | 237° |
| 2026-05-05 18:54 | 51.63761 | 7.02155 | 12926 ft | 321 kts | 237° |
| 2026-05-05 18:55 | 51.62607 | 6.99124 | 12346 ft | 318 kts | 237° |
| 2026-05-05 18:55 | 51.61459 | 6.96105 | 11787 ft | 314 kts | 237° |
| 2026-05-05 18:55 | 51.60340 | 6.93146 | 11246 ft | 311 kts | 238° |
| 2026-05-05 18:55 | 51.59203 | 6.90154 | 10909 ft | 309 kts | 238° |
| 2026-05-05 18:56 | 51.58113 | 6.87273 | 10989 ft | 295 kts | 237° |
| 2026-05-05 18:56 | 51.56871 | 6.84779 | 10810 ft | 283 kts | 220° |
| 2026-05-05 18:56 | 51.55397 | 6.82798 | 10553 ft | 273 kts | 219° |
| 2026-05-05 18:56 | 51.53961 | 6.80882 | 10267 ft | 266 kts | 218° |
| 2026-05-05 18:57 | 51.52552 | 6.78979 | 9946 ft | 261 kts | 219° |
| 2026-05-05 18:57 | 51.51197 | 6.77138 | 9623 ft | 256 kts | 218° |
| 2026-05-05 18:57 | 51.49837 | 6.75306 | 9278 ft | 252 kts | 218° |
| 2026-05-05 18:57 | 51.48495 | 6.73515 | 8949 ft | 250 kts | 219° |
| 2026-05-05 18:58 | 51.47162 | 6.71750 | 8691 ft | 249 kts | 218° |
| 2026-05-05 18:58 | 51.45822 | 6.69976 | 8380 ft | 251 kts | 219° |
| 2026-05-05 18:58 | 51.44456 | 6.68166 | 7740 ft | 265 kts | 219° |
| 2026-05-05 18:58 | 51.43006 | 6.66247 | 7152 ft | 275 kts | 218° |
| 2026-05-05 18:59 | 51.41555 | 6.64314 | 6935 ft | 271 kts | 219° |
| 2026-05-05 18:59 | 51.40099 | 6.62387 | 6985 ft | 272 kts | 219° |
| 2026-05-05 18:59 | 51.38667 | 6.60492 | 6753 ft | 270 kts | 219° |
| 2026-05-05 18:59 | 51.37212 | 6.58582 | 6544 ft | 264 kts | 219° |
| 2026-05-05 19:00 | 51.35839 | 6.56783 | 6543 ft | 251 kts | 219° |
| 2026-05-05 19:00 | 51.34520 | 6.55044 | 6308 ft | 238 kts | 219° |
| 2026-05-05 19:00 | 51.33286 | 6.53403 | 5988 ft | 231 kts | 219° |
| 2026-05-05 19:00 | 51.32062 | 6.51790 | 5627 ft | 226 kts | 218° |
| 2026-05-05 19:01 | 51.30862 | 6.50193 | 5231 ft | 224 kts | 219° |
| 2026-05-05 19:01 | 51.29664 | 6.48608 | 4827 ft | 223 kts | 219° |
| 2026-05-05 19:01 | 51.28481 | 6.47038 | 4423 ft | 223 kts | 219° |
| 2026-05-05 19:01 | 51.27227 | 6.45381 | 3784 ft | 242 kts | 219° |
| 2026-05-05 19:02 | 51.25888 | 6.43783 | 3364 ft | 233 kts | 204° |
| 2026-05-05 19:02 | 51.24364 | 6.43346 | 3100 ft | 219 kts | 169° |
| 2026-05-05 19:02 | 51.23018 | 6.44317 | 3181 ft | 214 kts | 145° |
| 2026-05-05 19:02 | 51.21818 | 6.45754 | 3109 ft | 215 kts | 143° |
| 2026-05-05 19:03 | 51.20630 | 6.47205 | 3113 ft | 215 kts | 144° |
| 2026-05-05 19:03 | 51.19523 | 6.48771 | 3110 ft | 219 kts | 125° |
| 2026-05-05 19:03 | 51.19024 | 6.51085 | 3150 ft | 223 kts | 91° |
| 2026-05-05 19:03 | 51.19176 | 6.53559 | 3160 ft | 228 kts | 84° |
| 2026-05-05 19:04 | 51.19408 | 6.56051 | 3112 ft | 227 kts | 84° |
| 2026-05-05 19:04 | 51.19901 | 6.58382 | 3117 ft | 230 kts | 55° |
| 2026-05-05 19:04 | 51.20894 | 6.60367 | 2896 ft | 233 kts | 51° |
| 2026-05-05 19:04 | 51.21856 | 6.62366 | 2219 ft | 228 kts | 57° |
| 2026-05-05 19:05 | 51.22754 | 6.64335 | 1880 ft | 207 kts | 54° |
| 2026-05-05 19:05 | 51.23598 | 6.66108 | 1582 ft | 193 kts | 54° |
| 2026-05-05 19:05 | 51.24396 | 6.67771 | 1399 ft | 183 kts | 55° |
| 2026-05-05 19:05 | 51.25166 | 6.69373 | 1134 ft | 174 kts | 54° |
| 2026-05-05 19:06 | 51.25858 | 6.70819 | 871 ft | 158 kts | 55° |
| 2026-05-05 19:06 | 51.26512 | 6.72187 | 673 ft | 152 kts | 54° |
| 2026-05-05 19:06 | 51.27140 | 6.73493 | 472 ft | 147 kts | 54° |
| 2026-05-05 19:06 | 51.27759 | 6.74794 | 277 ft | 146 kts | 54° |
| 2026-05-05 19:07 | 51.28372 | 6.76066 | 126 ft | 140 kts | 54° |
| 2026-05-05 19:07 | 51.28790 | 6.76937 | 129 ft | 57 kts | 53° |
| 2026-05-05 19:07 | 51.28875 | 6.77120 | 128 ft | 1 kts | 53° |
| 2026-05-05 19:07 | 51.28950 | 6.77280 | 128 ft | 28 kts | 53° |
| 2026-05-05 19:08 | 51.29013 | 6.77529 | 128 ft | 23 kts | 110° |
| 2026-05-05 19:08 | 51.28963 | 6.77617 | 128 ft | 0 kts | 141° |
| 2026-05-05 19:08 | 51.28960 | 6.77622 | 128 ft | 5 kts | 143° |
| 2026-05-05 19:08 | 51.28888 | 6.77607 | 128 ft | 17 kts | 221° |
| 2026-05-05 19:09 | 51.28799 | 6.77426 | 129 ft | 23 kts | 233° |
| 2026-05-05 19:09 | 51.28688 | 6.77194 | 129 ft | 29 kts | 233° |
| 2026-05-05 19:09 | 51.28550 | 6.76906 | 130 ft | 35 kts | 233° |
| 2026-05-05 19:09 | 51.28384 | 6.76558 | 129 ft | 35 kts | 233° |
| 2026-05-05 19:10 | 51.28252 | 6.76281 | 126 ft | 25 kts | 233° |
| 2026-05-05 19:10 | 51.28151 | 6.76068 | 123 ft | 20 kts | 230° |
| 2026-05-05 19:10 | 51.28008 | 6.76046 | 122 ft | 18 kts | 179° |
| 2026-05-05 19:10 | 51.27941 | 6.76101 | 125 ft | 9 kts | 88° |
| 2026-05-05 19:11 | 51.27942 | 6.76160 | 126 ft | 5 kts | 89° |
| 2026-05-05 19:11 | 51.27942 | 6.76166 | 126 ft | 0 kts | 89° |